sensor_id;sensor_type;location;lat;lon;timestamp;pressure;altitude;pressure_sealevel;temperature;humidity
57990;BME280;58373;51.824;5.564;2023-04-20T00:00:47;102258.88;;;6.36;44.63
57990;BME280;58373;51.824;5.564;2023-04-20T00:03:13;102254.72;;;6.34;44.37
57990;BME280;58373;51.824;5.564;2023-04-20T00:05:38;102250.53;;;6.31;45.16
57990;BME280;58373;51.824;5.564;2023-04-20T00:08:03;102251.56;;;6.27;44.94
57990;BME280;58373;51.824;5.564;2023-04-20T00:10:28;102259.28;;;6.27;45.58
57990;BME280;58373;51.824;5.564;2023-04-20T00:12:54;102250.78;;;6.25;45.29
57990;BME280;58373;51.824;5.564;2023-04-20T00:15:19;102248.31;;;6.22;45.78
57990;BME280;58373;51.824;5.564;2023-04-20T00:17:44;102241.56;;;6.20;46.36
57990;BME280;58373;51.824;5.564;2023-04-20T00:20:10;102245.09;;;6.17;46.18
57990;BME280;58373;51.824;5.564;2023-04-20T00:22:36;102233.28;;;6.11;45.96
57990;BME280;58373;51.824;5.564;2023-04-20T00:25:02;102233.47;;;6.07;46.14
57990;BME280;58373;51.824;5.564;2023-04-20T00:27:27;102224.97;;;6.05;46.26
57990;BME280;58373;51.824;5.564;2023-04-20T00:29:52;102229.28;;;6.04;46.76
57990;BME280;58373;51.824;5.564;2023-04-20T00:32:17;102220.19;;;5.96;45.82
57990;BME280;58373;51.824;5.564;2023-04-20T00:34:43;102215.16;;;5.93;47.09
57990;BME280;58373;51.824;5.564;2023-04-20T00:37:08;102212.81;;;5.86;47.71
57990;BME280;58373;51.824;5.564;2023-04-20T00:39:33;102211.56;;;5.75;47.94
57990;BME280;58373;51.824;5.564;2023-04-20T00:42:02;102200.66;;;5.68;47.92
57990;BME280;58373;51.824;5.564;2023-04-20T00:44:28;102194.06;;;5.61;48.01
57990;BME280;58373;51.824;5.564;2023-04-20T00:46:53;102189.03;;;5.58;48.83
57990;BME280;58373;51.824;5.564;2023-04-20T00:49:20;102179.91;;;5.51;48.34
57990;BME280;58373;51.824;5.564;2023-04-20T00:51:45;102175.81;;;5.45;49.46
57990;BME280;58373;51.824;5.564;2023-04-20T00:54:10;102162.22;;;5.42;49.58
57990;BME280;58373;51.824;5.564;2023-04-20T00:56:36;102162.31;;;5.39;48.95
57990;BME280;58373;51.824;5.564;2023-04-20T00:59:02;102164.13;;;5.37;49.69
57990;BME280;58373;51.824;5.564;2023-04-20T01:01:27;102158.22;;;5.35;49.89
57990;BME280;58373;51.824;5.564;2023-04-20T01:03:53;102143.56;;;5.37;49.83
57990;BME280;58373;51.824;5.564;2023-04-20T01:06:18;102146.88;;;5.39;49.66
57990;BME280;58373;51.824;5.564;2023-04-20T01:08:44;102145.13;;;5.41;49.40
57990;BME280;58373;51.824;5.564;2023-04-20T01:11:09;102138.41;;;5.37;49.40
57990;BME280;58373;51.824;5.564;2023-04-20T01:13:34;102135.00;;;5.36;49.33
57990;BME280;58373;51.824;5.564;2023-04-20T01:16:02;102135.06;;;5.35;49.70
57990;BME280;58373;51.824;5.564;2023-04-20T01:18:27;102129.91;;;5.35;49.63
57990;BME280;58373;51.824;5.564;2023-04-20T01:20:52;102130.81;;;5.33;50.70
57990;BME280;58373;51.824;5.564;2023-04-20T01:23:18;102126.53;;;5.32;50.64
57990;BME280;58373;51.824;5.564;2023-04-20T01:25:43;102118.06;;;5.30;50.95
57990;BME280;58373;51.824;5.564;2023-04-20T01:28:08;102113.03;;;5.27;50.85
57990;BME280;58373;51.824;5.564;2023-04-20T01:30:33;102106.34;;;5.23;50.96
57990;BME280;58373;51.824;5.564;2023-04-20T01:32:59;102109.03;;;5.20;50.86
57990;BME280;58373;51.824;5.564;2023-04-20T01:35:24;102101.44;;;5.17;51.62
57990;BME280;58373;51.824;5.564;2023-04-20T01:37:49;102092.09;;;5.15;51.59
57990;BME280;58373;51.824;5.564;2023-04-20T01:40:14;102096.63;;;5.08;51.85
57990;BME280;58373;51.824;5.564;2023-04-20T01:42:40;102088.25;;;5.03;52.56
57990;BME280;58373;51.824;5.564;2023-04-20T01:45:05;102091.72;;;5.02;51.85
57990;BME280;58373;51.824;5.564;2023-04-20T01:47:30;102088.25;;;5.03;51.62
57990;BME280;58373;51.824;5.564;2023-04-20T01:49:56;102087.50;;;5.01;52.97
57990;BME280;58373;51.824;5.564;2023-04-20T01:52:21;102080.72;;;4.98;53.70
57990;BME280;58373;51.824;5.564;2023-04-20T01:54:46;102072.16;;;4.98;53.78
57990;BME280;58373;51.824;5.564;2023-04-20T01:57:11;102069.59;;;4.98;54.65
57990;BME280;58373;51.824;5.564;2023-04-20T01:59:37;102059.31;;;4.98;55.29
57990;BME280;58373;51.824;5.564;2023-04-20T02:02:02;102054.06;;;5.01;54.79
57990;BME280;58373;51.824;5.564;2023-04-20T02:04:27;102052.16;;;5.06;55.36
57990;BME280;58373;51.824;5.564;2023-04-20T02:06:52;102051.19;;;5.09;56.38
57990;BME280;58373;51.824;5.564;2023-04-20T02:09:17;102050.94;;;5.15;55.88
57990;BME280;58373;51.824;5.564;2023-04-20T02:11:43;102045.56;;;5.21;56.39
57990;BME280;58373;51.824;5.564;2023-04-20T02:14:08;102053.09;;;5.25;55.74
57990;BME280;58373;51.824;5.564;2023-04-20T02:16:33;102049.63;;;5.26;56.29
57990;BME280;58373;51.824;5.564;2023-04-20T02:18:59;102042.69;;;5.28;56.64
57990;BME280;58373;51.824;5.564;2023-04-20T02:21:25;102051.19;;;5.30;56.99
57990;BME280;58373;51.824;5.564;2023-04-20T02:23:50;102043.47;;;5.30;57.27
57990;BME280;58373;51.824;5.564;2023-04-20T02:26:15;102038.31;;;5.30;57.89
57990;BME280;58373;51.824;5.564;2023-04-20T02:28:41;102034.06;;;5.29;58.31
57990;BME280;58373;51.824;5.564;2023-04-20T02:31:06;102034.19;;;5.26;58.93
57990;BME280;58373;51.824;5.564;2023-04-20T02:33:31;102033.34;;;5.26;58.17
57990;BME280;58373;51.824;5.564;2023-04-20T02:35:56;102033.34;;;5.26;58.47
57990;BME280;58373;51.824;5.564;2023-04-20T02:38:21;102024.94;;;5.22;58.93
57990;BME280;58373;51.824;5.564;2023-04-20T02:40:47;102024.97;;;5.21;59.37
57990;BME280;58373;51.824;5.564;2023-04-20T02:43:12;102022.47;;;5.19;59.15
57990;BME280;58373;51.824;5.564;2023-04-20T02:45:37;102020.81;;;5.18;59.39
57990;BME280;58373;51.824;5.564;2023-04-20T02:48:02;102011.44;;;5.17;59.55
57990;BME280;58373;51.824;5.564;2023-04-20T02:50:28;102020.16;;;5.13;60.01
57990;BME280;58373;51.824;5.564;2023-04-20T02:52:53;102012.44;;;5.13;60.12
57990;BME280;58373;51.824;5.564;2023-04-20T02:55:18;102017.56;;;5.13;61.24
57990;BME280;58373;51.824;5.564;2023-04-20T02:57:44;102012.44;;;5.13;60.31
57990;BME280;58373;51.824;5.564;2023-04-20T03:00:09;102005.47;;;5.15;60.79
57990;BME280;58373;51.824;5.564;2023-04-20T03:02:37;102005.47;;;5.15;60.94
57990;BME280;58373;51.824;5.564;2023-04-20T03:05:02;102002.03;;;5.16;61.25
57990;BME280;58373;51.824;5.564;2023-04-20T03:07:28;102007.94;;;5.18;61.11
57990;BME280;58373;51.824;5.564;2023-04-20T03:09:53;102003.56;;;5.20;61.85
57990;BME280;58373;51.824;5.564;2023-04-20T03:12:18;101990.66;;;5.22;61.15
57990;BME280;58373;51.824;5.564;2023-04-20T03:14:44;101996.50;;;5.25;60.90
57990;BME280;58373;51.824;5.564;2023-04-20T03:17:09;101984.41;;;5.27;61.31
57990;BME280;58373;51.824;5.564;2023-04-20T03:19:34;101994.59;;;5.30;61.94
57990;BME280;58373;51.824;5.564;2023-04-20T03:22:00;101988.44;;;5.35;61.69
57990;BME280;58373;51.824;5.564;2023-04-20T03:24:25;101971.09;;;5.38;61.49
57990;BME280;58373;51.824;5.564;2023-04-20T03:26:51;101970.03;;;5.44;61.70
57990;BME280;58373;51.824;5.564;2023-04-20T03:29:16;101968.25;;;5.46;61.60
57990;BME280;58373;51.824;5.564;2023-04-20T03:31:41;101974.91;;;5.50;62.50
57990;BME280;58373;51.824;5.564;2023-04-20T03:34:06;101971.31;;;5.54;63.18
57990;BME280;58373;51.824;5.564;2023-04-20T03:36:31;101971.19;;;5.57;63.24
57990;BME280;58373;51.824;5.564;2023-04-20T03:38:57;101969.38;;;5.59;63.22
57990;BME280;58373;51.824;5.564;2023-04-20T03:41:22;101971.06;;;5.60;62.73
57990;BME280;58373;51.824;5.564;2023-04-20T03:43:47;101964.13;;;5.62;63.43
57990;BME280;58373;51.824;5.564;2023-04-20T03:46:13;101957.16;;;5.64;63.77
57990;BME280;58373;51.824;5.564;2023-04-20T03:48:38;101951.09;;;5.65;63.75
57990;BME280;58373;51.824;5.564;2023-04-20T03:51:03;101956.34;;;5.64;63.31
57990;BME280;58373;51.824;5.564;2023-04-20T03:53:28;101956.19;;;5.67;63.37
57990;BME280;58373;51.824;5.564;2023-04-20T03:55:54;101957.00;;;5.67;64.28
57990;BME280;58373;51.824;5.564;2023-04-20T03:58:19;101960.41;;;5.68;63.17
57990;BME280;58373;51.824;5.564;2023-04-20T04:00:45;101955.34;;;5.66;64.09
57990;BME280;58373;51.824;5.564;2023-04-20T04:03:11;101954.41;;;5.69;64.14
57990;BME280;58373;51.824;5.564;2023-04-20T04:05:36;101946.59;;;5.70;63.83
57990;BME280;58373;51.824;5.564;2023-04-20T04:08:01;101952.59;;;5.71;64.31
57990;BME280;58373;51.824;5.564;2023-04-20T04:10:26;101945.78;;;5.70;64.74
57990;BME280;58373;51.824;5.564;2023-04-20T04:12:51;101946.59;;;5.70;64.79
57990;BME280;58373;51.824;5.564;2023-04-20T04:15:17;101948.28;;;5.71;64.90
57990;BME280;58373;51.824;5.564;2023-04-20T04:17:43;101935.41;;;5.71;64.86
57990;BME280;58373;51.824;5.564;2023-04-20T04:20:08;101938.72;;;5.73;64.89
57990;BME280;58373;51.824;5.564;2023-04-20T04:22:34;101936.16;;;5.73;64.69
57990;BME280;58373;51.824;5.564;2023-04-20T04:24:59;101932.72;;;5.74;64.99
57990;BME280;58373;51.824;5.564;2023-04-20T04:27:24;101929.22;;;5.75;65.74
57990;BME280;58373;51.824;5.564;2023-04-20T04:29:49;101922.25;;;5.77;64.50
57990;BME280;58373;51.824;5.564;2023-04-20T04:32:15;101917.00;;;5.80;65.48
57990;BME280;58373;51.824;5.564;2023-04-20T04:34:40;101898.06;;;5.81;64.80
57990;BME280;58373;51.824;5.564;2023-04-20T04:37:08;101904.94;;;5.81;65.07
57990;BME280;58373;51.824;5.564;2023-04-20T04:39:33;101907.44;;;5.82;65.66
57990;BME280;58373;51.824;5.564;2023-04-20T04:41:58;101904.03;;;5.82;65.58
57990;BME280;58373;51.824;5.564;2023-04-20T04:44:24;101902.22;;;5.84;65.85
57990;BME280;58373;51.824;5.564;2023-04-20T04:46:50;101908.19;;;5.84;65.25
57990;BME280;58373;51.824;5.564;2023-04-20T04:49:15;101897.91;;;5.84;66.09
57990;BME280;58373;51.824;5.564;2023-04-20T04:51:40;101903.84;;;5.86;65.45
57990;BME280;58373;51.824;5.564;2023-04-20T04:54:05;101902.94;;;5.88;65.56
57990;BME280;58373;51.824;5.564;2023-04-20T04:56:31;101912.31;;;5.89;66.08
57990;BME280;58373;51.824;5.564;2023-04-20T04:58:56;101915.72;;;5.89;66.62
57990;BME280;58373;51.824;5.564;2023-04-20T05:01:21;101907.94;;;5.91;66.14
57990;BME280;58373;51.824;5.564;2023-04-20T05:03:46;101906.19;;;5.93;66.37
57990;BME280;58373;51.824;5.564;2023-04-20T05:06:12;101909.59;;;5.93;66.52
57990;BME280;58373;51.824;5.564;2023-04-20T05:08:37;101905.34;;;5.92;67.35
57990;BME280;58373;51.824;5.564;2023-04-20T05:11:02;101905.25;;;5.94;66.98
57990;BME280;58373;51.824;5.564;2023-04-20T05:13:27;101897.53;;;5.94;67.30
57990;BME280;58373;51.824;5.564;2023-04-20T05:15:52;101894.06;;;5.95;67.14
57990;BME280;58373;51.824;5.564;2023-04-20T05:18:18;101897.41;;;5.97;67.36
57990;BME280;58373;51.824;5.564;2023-04-20T05:20:43;101894.75;;;5.98;67.59
57990;BME280;58373;51.824;5.564;2023-04-20T05:23:08;101893.94;;;5.98;67.74
57990;BME280;58373;51.824;5.564;2023-04-20T05:25:33;101885.28;;;5.99;67.99
57990;BME280;58373;51.824;5.564;2023-04-20T05:27:58;101893.78;;;6.01;68.84
57990;BME280;58373;51.824;5.564;2023-04-20T05:30:24;101885.09;;;6.03;68.40
57990;BME280;58373;51.824;5.564;2023-04-20T05:32:49;101886.69;;;6.06;68.39
57990;BME280;58373;51.824;5.564;2023-04-20T05:35:14;101903.66;;;6.10;68.49
57990;BME280;58373;51.824;5.564;2023-04-20T05:37:40;101891.56;;;6.12;68.21
57990;BME280;58373;51.824;5.564;2023-04-20T05:40:05;101897.53;;;6.12;68.79
57990;BME280;58373;51.824;5.564;2023-04-20T05:42:31;101885.50;;;6.13;67.98
57990;BME280;58373;51.824;5.564;2023-04-20T05:44:56;101878.38;;;6.18;68.58
57990;BME280;58373;51.824;5.564;2023-04-20T05:47:21;101881.75;;;6.20;68.62
57990;BME280;58373;51.824;5.564;2023-04-20T05:49:46;101873.84;;;6.23;68.29
57990;BME280;58373;51.824;5.564;2023-04-20T05:52:12;101870.38;;;6.24;68.41
57990;BME280;58373;51.824;5.564;2023-04-20T05:54:37;101873.72;;;6.26;68.70
57990;BME280;58373;51.824;5.564;2023-04-20T05:57:02;101869.31;;;6.28;69.01
57990;BME280;58373;51.824;5.564;2023-04-20T05:59:29;101864.94;;;6.30;68.43
57990;BME280;58373;51.824;5.564;2023-04-20T06:01:54;101864.94;;;6.30;69.12
57990;BME280;58373;51.824;5.564;2023-04-20T06:04:20;101868.28;;;6.32;67.83
57990;BME280;58373;51.824;5.564;2023-04-20T06:06:45;101861.31;;;6.34;68.55
57990;BME280;58373;51.824;5.564;2023-04-20T06:09:10;101866.34;;;6.37;68.74
57990;BME280;58373;51.824;5.564;2023-04-20T06:11:36;101858.44;;;6.41;69.10
57990;BME280;58373;51.824;5.564;2023-04-20T06:14:01;101856.56;;;6.44;68.57
57990;BME280;58373;51.824;5.564;2023-04-20T06:16:26;101854.59;;;6.49;68.53
57990;BME280;58373;51.824;5.564;2023-04-20T06:18:51;101862.94;;;6.54;68.74
57990;BME280;58373;51.824;5.564;2023-04-20T06:21:16;101866.97;;;6.60;68.20
57990;BME280;58373;51.824;5.564;2023-04-20T06:23:42;101863.19;;;6.67;68.26
57990;BME280;58373;51.824;5.564;2023-04-20T06:26:08;101859.41;;;6.74;67.88
57990;BME280;58373;51.824;5.564;2023-04-20T06:28:34;101867.56;;;6.82;67.73
57990;BME280;58373;51.824;5.564;2023-04-20T06:31:00;101859.84;;;6.82;67.02
57990;BME280;58373;51.824;5.564;2023-04-20T06:33:25;101852.81;;;6.86;67.17
57990;BME280;58373;51.824;5.564;2023-04-20T06:35:51;101850.13;;;6.87;66.69
57990;BME280;58373;51.824;5.564;2023-04-20T06:38:18;101852.50;;;6.92;67.52
57990;BME280;58373;51.824;5.564;2023-04-20T06:40:43;101854.84;;;6.97;66.83
57990;BME280;58373;51.824;5.564;2023-04-20T06:43:09;101845.28;;;6.99;66.34
57990;BME280;58373;51.824;5.564;2023-04-20T06:45:34;101859.88;;;7.00;64.70
57990;BME280;58373;51.824;5.564;2023-04-20T06:47:59;101854.53;;;7.03;64.75
57990;BME280;58373;51.824;5.564;2023-04-20T06:50:25;101847.41;;;7.08;64.76
57990;BME280;58373;51.824;5.564;2023-04-20T06:52:50;101849.53;;;7.17;64.28
57990;BME280;58373;51.824;5.564;2023-04-20T06:55:15;101861.34;;;7.21;64.29
57990;BME280;58373;51.824;5.564;2023-04-20T06:57:41;101855.13;;;7.25;64.42
57990;BME280;58373;51.824;5.564;2023-04-20T07:00:08;101854.94;;;7.28;64.02
57990;BME280;58373;51.824;5.564;2023-04-20T07:02:46;101853.16;;;7.30;64.31
57990;BME280;58373;51.824;5.564;2023-04-20T07:05:12;101849.50;;;7.34;63.79
57990;BME280;58373;51.824;5.564;2023-04-20T07:07:37;101861.63;;;7.32;63.94
57990;BME280;58373;51.824;5.564;2023-04-20T07:10:02;101858.13;;;7.33;63.99
57990;BME280;58373;51.824;5.564;2023-04-20T07:12:28;101858.41;;;7.29;63.15
57990;BME280;58373;51.824;5.564;2023-04-20T07:14:53;101856.78;;;7.26;62.95
57990;BME280;58373;51.824;5.564;2023-04-20T07:17:18;101861.28;;;7.23;63.21
57990;BME280;58373;51.824;5.564;2023-04-20T07:19:44;101857.34;;;7.15;63.37
57990;BME280;58373;51.824;5.564;2023-04-20T07:22:09;101855.59;;;7.16;63.54
57990;BME280;58373;51.824;5.564;2023-04-20T07:24:34;101857.28;;;7.17;64.72
57990;BME280;58373;51.824;5.564;2023-04-20T07:27:00;101869.09;;;7.21;64.18
57990;BME280;58373;51.824;5.564;2023-04-20T07:29:25;101865.53;;;7.24;64.69
57990;BME280;58373;51.824;5.564;2023-04-20T07:31:50;101854.44;;;7.22;64.61
57990;BME280;58373;51.824;5.564;2023-04-20T07:34:15;101857.09;;;7.20;65.09
57990;BME280;58373;51.824;5.564;2023-04-20T07:36:41;101849.28;;;7.22;66.45
57990;BME280;58373;51.824;5.564;2023-04-20T07:39:06;101854.81;;;7.31;64.74
57990;BME280;58373;51.824;5.564;2023-04-20T07:41:31;101853.16;;;7.30;65.39
57990;BME280;58373;51.824;5.564;2023-04-20T07:43:56;101864.31;;;7.31;65.70
57990;BME280;58373;51.824;5.564;2023-04-20T07:46:22;101861.81;;;7.29;64.63
57990;BME280;58373;51.824;5.564;2023-04-20T07:48:47;101856.66;;;7.29;65.21
57990;BME280;58373;51.824;5.564;2023-04-20T07:51:13;101857.09;;;7.20;64.92
57990;BME280;58373;51.824;5.564;2023-04-20T07:53:38;101860.28;;;7.25;65.75
57990;BME280;58373;51.824;5.564;2023-04-20T07:56:03;101863.47;;;7.30;65.73
57990;BME280;58373;51.824;5.564;2023-04-20T07:58:28;101850.34;;;7.35;64.77
57990;BME280;58373;51.824;5.564;2023-04-20T08:00:54;101850.53;;;7.48;64.99
57990;BME280;58373;51.824;5.564;2023-04-20T08:03:19;101843.78;;;7.61;65.60
57990;BME280;58373;51.824;5.564;2023-04-20T08:05:44;101843.41;;;7.68;64.97
57990;BME280;58373;51.824;5.564;2023-04-20T08:08:10;101838.31;;;7.67;65.48
57990;BME280;58373;51.824;5.564;2023-04-20T08:10:35;101834.56;;;7.72;65.69
57990;BME280;58373;51.824;5.564;2023-04-20T08:13:01;101838.56;;;7.78;65.38
57990;BME280;58373;51.824;5.564;2023-04-20T08:15:26;101833.25;;;7.81;64.49
57990;BME280;58373;51.824;5.564;2023-04-20T08:17:51;101830.44;;;7.86;64.40
57990;BME280;58373;51.824;5.564;2023-04-20T08:20:17;101829.75;;;7.82;64.64
57990;BME280;58373;51.824;5.564;2023-04-20T08:22:42;101827.31;;;7.79;64.75
57990;BME280;58373;51.824;5.564;2023-04-20T08:25:10;101824.59;;;7.82;65.18
57990;BME280;58373;51.824;5.564;2023-04-20T08:27:41;101834.09;;;7.82;64.84
57990;BME280;58373;51.824;5.564;2023-04-20T08:30:25;101824.91;;;7.76;65.30
57990;BME280;58373;51.824;5.564;2023-04-20T08:32:56;101824.47;;;7.68;64.63
57990;BME280;58373;51.824;5.564;2023-04-20T08:35:22;101828.56;;;7.72;65.20
57990;BME280;58373;51.824;5.564;2023-04-20T08:38:04;101830.22;;;7.73;65.33
57990;BME280;58373;51.824;5.564;2023-04-20T08:40:45;101823.41;;;7.72;65.43
57990;BME280;58373;51.824;5.564;2023-04-20T08:43:34;101820.81;;;7.72;64.96
57990;BME280;58373;51.824;5.564;2023-04-20T08:46:09;101811.09;;;7.77;65.19
57990;BME280;58373;51.824;5.564;2023-04-20T08:48:35;101809.41;;;7.76;65.20
57990;BME280;58373;51.824;5.564;2023-04-20T08:51:01;101810.75;;;7.83;64.85
57990;BME280;58373;51.824;5.564;2023-04-20T08:53:26;101800.25;;;7.86;65.62
57990;BME280;58373;51.824;5.564;2023-04-20T08:55:51;101812.06;;;7.90;65.22
57990;BME280;58373;51.824;5.564;2023-04-20T08:58:16;101806.50;;;7.82;65.20
57990;BME280;58373;51.824;5.564;2023-04-20T09:00:48;101803.91;;;7.82;65.43
57990;BME280;58373;51.824;5.564;2023-04-20T09:03:13;101800.50;;;7.82;65.63
57990;BME280;58373;51.824;5.564;2023-04-20T09:05:38;101794.34;;;7.84;65.72
57990;BME280;58373;51.824;5.564;2023-04-20T09:08:04;101800.09;;;7.89;65.21
57990;BME280;58373;51.824;5.564;2023-04-20T09:10:51;101810.25;;;7.92;65.10
57990;BME280;58373;51.824;5.564;2023-04-20T09:13:21;101808.75;;;7.88;65.92
57990;BME280;58373;51.824;5.564;2023-04-20T09:15:47;101810.41;;;7.89;65.29
57990;BME280;58373;51.824;5.564;2023-04-20T09:18:13;101800.09;;;7.89;65.90
57990;BME280;58373;51.824;5.564;2023-04-20T09:20:38;101798.41;;;7.88;65.20
57990;BME280;58373;51.824;5.564;2023-04-20T09:23:14;101798.28;;;7.91;65.87
57990;BME280;58373;51.824;5.564;2023-04-20T09:25:39;101794.91;;;7.89;66.96
57990;BME280;58373;51.824;5.564;2023-04-20T09:28:09;101792.34;;;7.89;65.83
57990;BME280;58373;51.824;5.564;2023-04-20T09:30:41;101791.59;;;7.87;65.64
57990;BME280;58373;51.824;5.564;2023-04-20T09:33:07;101788.34;;;7.84;66.21
57990;BME280;58373;51.824;5.564;2023-04-20T09:35:34;101800.41;;;7.83;65.77
57990;BME280;58373;51.824;5.564;2023-04-20T09:38:00;101800.41;;;7.83;65.87
57990;BME280;58373;51.824;5.564;2023-04-20T09:40:25;101804.84;;;7.81;66.13
57990;BME280;58373;51.824;5.564;2023-04-20T09:42:54;101802.06;;;7.84;66.37
57990;BME280;58373;51.824;5.564;2023-04-20T09:45:22;101805.59;;;7.83;66.00
57990;BME280;58373;51.824;5.564;2023-04-20T09:47:49;101801.50;;;7.79;65.76
57990;BME280;58373;51.824;5.564;2023-04-20T09:50:15;101795.75;;;7.74;66.40
57990;BME280;58373;51.824;5.564;2023-04-20T09:52:40;101796.41;;;7.78;66.82
57990;BME280;58373;51.824;5.564;2023-04-20T09:55:07;101802.06;;;7.84;66.82
57990;BME280;58373;51.824;5.564;2023-04-20T09:57:34;101797.84;;;7.83;66.77
57990;BME280;58373;51.824;5.564;2023-04-20T10:00:00;101788.44;;;7.82;67.04
57990;BME280;58373;51.824;5.564;2023-04-20T10:02:26;101787.50;;;7.83;66.04
57990;BME280;58373;51.824;5.564;2023-04-20T10:04:54;101785.41;;;7.74;66.36
57990;BME280;58373;51.824;5.564;2023-04-20T10:07:38;101786.34;;;7.73;66.88
57990;BME280;58373;51.824;5.564;2023-04-20T10:12:29;101781.00;;;7.76;66.55
57990;BME280;58373;51.824;5.564;2023-04-20T10:14:55;101787.84;;;7.77;67.06
57990;BME280;58373;51.824;5.564;2023-04-20T10:17:28;101786.75;;;7.81;67.34
57990;BME280;58373;51.824;5.564;2023-04-20T10:19:53;101777.75;;;7.88;67.20
57990;BME280;58373;51.824;5.564;2023-04-20T10:22:28;101773.28;;;7.92;66.72
57990;BME280;58373;51.824;5.564;2023-04-20T10:25:01;101780.97;;;8.08;66.53
57990;BME280;58373;51.824;5.564;2023-04-20T10:27:26;101766.41;;;8.07;65.92
57990;BME280;58373;51.824;5.564;2023-04-20T10:29:52;101766.41;;;8.07;66.31
57990;BME280;58373;51.824;5.564;2023-04-20T10:32:27;101772.88;;;8.14;67.15
57990;BME280;58373;51.824;5.564;2023-04-20T10:35:02;101763.22;;;8.17;65.99
57990;BME280;58373;51.824;5.564;2023-04-20T10:37:28;101763.69;;;8.24;64.98
57990;BME280;58373;51.824;5.564;2023-04-20T10:39:53;101774.69;;;8.28;64.85
57990;BME280;58373;51.824;5.564;2023-04-20T10:42:18;101761.69;;;8.29;64.94
57990;BME280;58373;51.824;5.564;2023-04-20T10:44:47;101759.34;;;8.24;64.60
57990;BME280;58373;51.824;5.564;2023-04-20T10:47:13;101757.38;;;8.14;65.09
57990;BME280;58373;51.824;5.564;2023-04-20T10:49:39;101752.56;;;8.08;64.37
57990;BME280;58373;51.824;5.564;2023-04-20T10:52:04;101749.09;;;8.09;66.19
57990;BME280;58373;51.824;5.564;2023-04-20T10:54:35;101753.72;;;8.18;66.79
57990;BME280;58373;51.824;5.564;2023-04-20T10:57:00;101755.84;;;8.25;66.26
57990;BME280;58373;51.824;5.564;2023-04-20T10:59:27;101755.69;;;8.29;65.40
57990;BME280;58373;51.824;5.564;2023-04-20T11:01:52;101753.19;;;8.27;65.27
57990;BME280;58373;51.824;5.564;2023-04-20T11:04:27;101748.19;;;8.24;64.05
57990;BME280;58373;51.824;5.564;2023-04-20T11:06:53;101740.34;;;8.25;64.29
57990;BME280;58373;51.824;5.564;2023-04-20T11:09:20;101748.28;;;8.38;64.47
57990;BME280;58373;51.824;5.564;2023-04-20T11:12:00;101744.94;;;8.36;64.20
57990;BME280;58373;51.824;5.564;2023-04-20T11:14:26;101734.00;;;8.31;63.77
57990;BME280;58373;51.824;5.564;2023-04-20T11:16:52;101743.47;;;8.46;64.05
57990;BME280;58373;51.824;5.564;2023-04-20T11:19:24;101732.78;;;8.38;62.83
57990;BME280;58373;51.824;5.564;2023-04-20T11:21:50;101736.28;;;8.51;62.87
57990;BME280;58373;51.824;5.564;2023-04-20T11:26:44;101727.44;;;8.56;62.55
57990;BME280;58373;51.824;5.564;2023-04-20T11:29:09;101714.72;;;8.67;62.45
57990;BME280;58373;51.824;5.564;2023-04-20T11:31:34;101716.75;;;8.62;62.74
57990;BME280;58373;51.824;5.564;2023-04-20T11:34:00;101718.03;;;8.69;62.65
57990;BME280;58373;51.824;5.564;2023-04-20T11:36:27;101713.53;;;8.72;63.06
57990;BME280;58373;51.824;5.564;2023-04-20T11:38:53;101700.28;;;8.77;62.24
57990;BME280;58373;51.824;5.564;2023-04-20T11:41:19;101697.19;;;8.72;62.59
57990;BME280;58373;51.824;5.564;2023-04-20T11:43:45;101709.34;;;8.70;62.53
57990;BME280;58373;51.824;5.564;2023-04-20T11:46:20;101701.03;;;8.65;61.59
57990;BME280;58373;51.824;5.564;2023-04-20T11:48:45;101699.75;;;8.58;62.13
57990;BME280;58373;51.824;5.564;2023-04-20T11:51:11;101708.22;;;8.60;62.14
57990;BME280;58373;51.824;5.564;2023-04-20T11:53:39;101697.88;;;8.60;62.76
57990;BME280;58373;51.824;5.564;2023-04-20T11:56:05;101696.78;;;8.64;62.60
57990;BME280;58373;51.824;5.564;2023-04-20T11:58:30;101693.84;;;8.70;63.26
57990;BME280;58373;51.824;5.564;2023-04-20T12:00:56;101699.09;;;8.83;62.01
57990;BME280;58373;51.824;5.564;2023-04-20T12:03:21;101694.41;;;8.89;62.80
57990;BME280;58373;51.824;5.564;2023-04-20T12:05:46;101688.94;;;8.94;62.04
57990;BME280;58373;51.824;5.564;2023-04-20T12:08:11;101688.88;;;8.95;61.65
57990;BME280;58373;51.824;5.564;2023-04-20T12:10:37;101691.13;;;9.00;60.97
57990;BME280;58373;51.824;5.564;2023-04-20T12:13:04;101682.56;;;8.85;60.93
57990;BME280;58373;51.824;5.564;2023-04-20T12:15:29;101698.09;;;8.85;61.32
57990;BME280;58373;51.824;5.564;2023-04-20T12:18:02;101690.44;;;8.84;60.52
57990;BME280;58373;51.824;5.564;2023-04-20T12:20:27;101682.75;;;8.82;61.81
57990;BME280;58373;51.824;5.564;2023-04-20T12:22:52;101686.66;;;8.89;61.23
57990;BME280;58373;51.824;5.564;2023-04-20T12:25:18;101690.34;;;8.85;62.09
57990;BME280;58373;51.824;5.564;2023-04-20T12:27:43;101683.50;;;8.84;61.67
57990;BME280;58373;51.824;5.564;2023-04-20T12:30:09;101684.44;;;8.83;61.47
57990;BME280;58373;51.824;5.564;2023-04-20T12:32:34;101676.03;;;8.80;61.33
57990;BME280;58373;51.824;5.564;2023-04-20T12:35:00;101667.59;;;8.76;61.67
57990;BME280;58373;51.824;5.564;2023-04-20T12:37:25;101685.34;;;8.82;61.73
57990;BME280;58373;51.824;5.564;2023-04-20T12:39:51;101679.44;;;8.80;62.07
57990;BME280;58373;51.824;5.564;2023-04-20T12:42:16;101682.56;;;8.85;61.28
57990;BME280;58373;51.824;5.564;2023-04-20T12:44:41;101689.59;;;8.83;61.38
57990;BME280;58373;51.824;5.564;2023-04-20T12:47:06;101672.22;;;8.85;61.82
57990;BME280;58373;51.824;5.564;2023-04-20T12:49:32;101678.69;;;8.92;61.71
57990;BME280;58373;51.824;5.564;2023-04-20T12:51:57;101675.16;;;8.93;61.11
57990;BME280;58373;51.824;5.564;2023-04-20T12:54:22;101664.56;;;8.84;60.72
57990;BME280;58373;51.824;5.564;2023-04-20T12:56:47;101673.88;;;8.86;60.99
57990;BME280;58373;51.824;5.564;2023-04-20T12:59:12;101684.44;;;8.83;61.57